Time;durP1;ratioP1;P1;durP2;ratioP2;P2;SDS_P1;SDS_P2;PMS_P1;PMS_P2;Temp;Humidity;BMP_temperature;BMP_pressure;BME280_temperature;BME280_humidity;BME280_pressure;Samples;Min_cycle;Max_cycle;Signal;HPM_P1;HPM_P2
2023/09/21 00:00:59;;;;;;;8.95;4.63;;;;;;;;;;5080804;28;20017;-72
2023/09/21 00:03:32;;;;;;;13.15;4.88;;;;;;;;;;5086672;28;20032;-72
2023/09/21 00:05:58;;;;;;;10.35;5.10;;;;;;;;;;5087476;28;20039;-72
2023/09/21 00:08:25;;;;;;;9.77;4.50;;;;;;;;;;5087643;28;20441;-72
2023/09/21 00:10:51;;;;;;;5.78;4.95;;;;;;;;;;5086996;28;20036;-71
2023/09/21 00:13:27;;;;;;;9.05;4.72;;;;;;;;;;5087401;28;20296;-71
2023/09/21 00:15:53;;;;;;;6.38;4.40;;;;;;;;;;5087506;28;20050;-72
2023/09/21 00:18:22;;;;;;;11.05;4.82;;;;;;;;;;5087609;28;20027;-72
2023/09/21 00:20:56;;;;;;;10.43;5.28;;;;;;;;;;5087008;28;20036;-73
2023/09/21 00:23:24;;;;;;;12.10;6.18;;;;;;;;;;5087664;28;20067;-71
2023/09/21 00:25:57;;;;;;;11.57;6.57;;;;;;;;;;5083532;28;20026;-71
2023/09/21 00:28:28;;;;;;;11.25;6.55;;;;;;;;;;5087162;28;20040;-73
2023/09/21 00:30:58;;;;;;;8.60;5.65;;;;;;;;;;5085665;28;20374;-72
2023/09/21 00:33:26;;;;;;;9.18;4.55;;;;;;;;;;5086184;28;20024;-71
2023/09/21 00:35:58;;;;;;;7.88;4.95;;;;;;;;;;5087146;28;20481;-72
2023/09/21 00:38:25;;;;;;;7.65;4.50;;;;;;;;;;5085737;28;20036;-71
2023/09/21 00:40:56;;;;;;;7.72;5.65;;;;;;;;;;5085010;28;20095;-72
2023/09/21 00:43:25;;;;;;;7.32;5.05;;;;;;;;;;5085883;28;20036;-71
2023/09/21 00:45:57;;;;;;;8.18;5.32;;;;;;;;;;5086302;28;20089;-71
2023/09/21 00:48:26;;;;;;;8.95;5.18;;;;;;;;;;5085350;28;20487;-71
2023/09/21 00:50:57;;;;;;;7.05;5.03;;;;;;;;;;5085425;28;20038;-70
2023/09/21 00:53:27;;;;;;;8.48;5.30;;;;;;;;;;5085561;28;20516;-71
2023/09/21 00:55:57;;;;;;;6.32;4.90;;;;;;;;;;5090474;28;20028;-71
2023/09/21 00:58:25;;;;;;;8.70;5.00;;;;;;;;;;5090970;28;20409;-72
2023/09/21 01:00:54;;;;;;;9.88;5.32;;;;;;;;;;5089830;28;20028;-71
2023/09/21 01:03:23;;;;;;;6.90;5.03;;;;;;;;;;5090692;28;20114;-71
2023/09/21 01:05:50;;;;;;;9.57;5.95;;;;;;;;;;5090617;28;20213;-71
2023/09/21 01:08:21;;;;;;;9.55;5.35;;;;;;;;;;5091771;28;20032;-71
2023/09/21 01:10:49;;;;;;;16.50;5.53;;;;;;;;;;5091616;28;20036;-71
2023/09/21 01:13:19;;;;;;;13.07;5.57;;;;;;;;;;5090250;28;20059;-71
2023/09/21 01:16:05;;;;;;;9.50;5.75;;;;;;;;;;5090157;28;20043;-71
2023/09/21 01:18:31;;;;;;;8.93;5.63;;;;;;;;;;5090510;28;20036;-70
2023/09/21 01:21:04;;;;;;;10.82;5.63;;;;;;;;;;5090063;28;20136;-71
2023/09/21 01:23:37;;;;;;;12.73;7.40;;;;;;;;;;5090383;28;20059;-71
2023/09/21 01:26:05;;;;;;;9.25;6.72;;;;;;;;;;5102199;28;20113;-73
2023/09/21 01:28:31;;;;;;;12.52;8.10;;;;;;;;;;5103542;28;20024;-72
2023/09/21 01:30:57;;;;;;;17.17;8.68;;;;;;;;;;5103176;28;20115;-71
2023/09/21 01:33:23;;;;;;;13.63;8.52;;;;;;;;;;5122016;27;20020;-71
2023/09/21 01:35:50;;;;;;;13.38;8.88;;;;;;;;;;5101136;28;20035;-71
2023/09/21 01:38:17;;;;;;;14.45;8.00;;;;;;;;;;5103275;28;20072;-71
2023/09/21 01:40:43;;;;;;;15.18;8.35;;;;;;;;;;5104118;28;20411;-70
2023/09/21 01:43:15;;;;;;;12.82;8.82;;;;;;;;;;5103067;28;20473;-72
2023/09/21 01:45:42;;;;;;;11.97;8.00;;;;;;;;;;5102621;28;20306;-72
2023/09/21 01:48:10;;;;;;;12.30;8.60;;;;;;;;;;5104271;28;20027;-72
2023/09/21 01:50:48;;;;;;;10.57;8.55;;;;;;;;;;5103825;28;20429;-71
2023/09/21 01:53:18;;;;;;;10.88;7.97;;;;;;;;;;5094160;28;20029;-71
2023/09/21 01:55:47;;;;;;;11.27;7.20;;;;;;;;;;5073237;28;20035;-71
2023/09/21 01:58:18;;;;;;;9.13;6.97;;;;;;;;;;5090249;28;20020;-71
2023/09/21 02:00:49;;;;;;;9.45;7.40;;;;;;;;;;5074422;28;20466;-71
2023/09/21 02:03:33;;;;;;;12.63;7.40;;;;;;;;;;5073128;28;20127;-71
2023/09/21 02:06:00;;;;;;;12.45;8.45;;;;;;;;;;5073285;28;20059;-71
2023/09/21 02:08:26;;;;;;;13.20;7.15;;;;;;;;;;5073413;28;20101;-72
2023/09/21 02:10:52;;;;;;;12.63;7.32;;;;;;;;;;5072929;28;20093;-72
2023/09/21 02:13:18;;;;;;;14.05;7.95;;;;;;;;;;5073089;28;20025;-72
2023/09/21 02:15:45;;;;;;;13.70;8.13;;;;;;;;;;5074038;28;20038;-71
2023/09/21 02:18:11;;;;;;;13.20;8.68;;;;;;;;;;5072891;28;20563;-71
2023/09/21 02:20:56;;;;;;;14.90;8.95;;;;;;;;;;5072594;28;20515;-71
2023/09/21 02:23:23;;;;;;;20.95;9.55;;;;;;;;;;5072795;28;20035;-71
2023/09/21 02:25:49;;;;;;;13.00;8.57;;;;;;;;;;5072741;28;20111;-71
2023/09/21 02:28:15;;;;;;;11.77;7.82;;;;;;;;;;5072564;28;20090;-71
2023/09/21 02:30:46;;;;;;;10.27;8.07;;;;;;;;;;5073815;28;20024;-71
2023/09/21 02:33:12;;;;;;;11.73;7.75;;;;;;;;;;5072684;28;20234;-71
2023/09/21 02:35:41;;;;;;;17.00;8.25;;;;;;;;;;5073901;28;20470;-71
2023/09/21 02:38:12;;;;;;;11.93;8.27;;;;;;;;;;5073915;28;20397;-71
2023/09/21 02:40:42;;;;;;;14.77;8.68;;;;;;;;;;5072227;28;20037;-71
2023/09/21 02:43:08;;;;;;;11.82;8.15;;;;;;;;;;5072499;28;20101;-71
2023/09/21 02:45:36;;;;;;;19.88;8.43;;;;;;;;;;5073652;28;20020;-70
2023/09/21 02:48:02;;;;;;;24.95;9.50;;;;;;;;;;5072417;28;20032;-71
2023/09/21 02:50:30;;;;;;;18.65;9.10;;;;;;;;;;5088937;28;20032;-71
2023/09/21 02:53:01;;;;;;;17.15;9.10;;;;;;;;;;5072280;28;20056;-71
2023/09/21 02:55:28;;;;;;;17.77;8.40;;;;;;;;;;5072103;28;20040;-71
2023/09/21 02:57:58;;;;;;;15.40;8.02;;;;;;;;;;5072169;28;20078;-70
2023/09/21 03:00:34;;;;;;;11.98;7.72;;;;;;;;;;5071881;28;20040;-70
2023/09/21 03:03:05;;;;;;;11.30;6.88;;;;;;;;;;5073614;28;20525;-70
2023/09/21 03:05:36;;;;;;;12.73;6.45;;;;;;;;;;5072990;28;20090;-71
2023/09/21 03:08:05;;;;;;;10.23;6.93;;;;;;;;;;5071661;28;20067;-70
2023/09/21 03:10:31;;;;;;;10.70;6.10;;;;;;;;;;5071600;28;20028;-71
2023/09/21 03:12:57;;;;;;;17.90;8.45;;;;;;;;;;5071878;28;20032;-71
2023/09/21 03:15:23;;;;;;;21.60;8.93;;;;;;;;;;5055102;28;20078;-71
2023/09/21 03:17:55;;;;;;;35.88;11.10;;;;;;;;;;5071605;28;20486;-72
2023/09/21 03:20:36;;;;;;;20.52;8.13;;;;;;;;;;5071331;28;20036;-71
2023/09/21 03:23:09;;;;;;;30.92;9.65;;;;;;;;;;5072772;28;20032;-71
2023/09/21 03:25:41;;;;;;;17.90;8.10;;;;;;;;;;5071613;28;20041;-71
2023/09/21 03:28:13;;;;;;;21.05;8.80;;;;;;;;;;5071250;28;20648;-71
2023/09/21 03:30:47;;;;;;;15.15;7.32;;;;;;;;;;5079245;28;20032;-72
2023/09/21 03:33:14;;;;;;;14.90;7.25;;;;;;;;;;5092695;28;20028;-72
2023/09/21 03:35:40;;;;;;;16.67;7.85;;;;;;;;;;5091191;28;20103;-71
2023/09/21 03:38:12;;;;;;;16.08;7.78;;;;;;;;;;5087802;28;20240;-70
2023/09/21 03:40:42;;;;;;;14.05;6.88;;;;;;;;;;5072763;28;20449;-70
2023/09/21 03:43:18;;;;;;;10.48;6.50;;;;;;;;;;5073184;28;20032;-71
2023/09/21 03:45:45;;;;;;;15.02;8.02;;;;;;;;;;5088360;28;20032;-71
2023/09/21 03:48:12;;;;;;;14.90;7.22;;;;;;;;;;5087105;28;20090;-71
2023/09/21 03:50:40;;;;;;;22.00;8.05;;;;;;;;;;5070335;28;20120;-71
2023/09/21 03:53:11;;;;;;;19.95;8.40;;;;;;;;;;5071082;28;20489;-72
2023/09/21 03:55:41;;;;;;;30.67;10.35;;;;;;;;;;5086131;28;20084;-72
2023/09/21 03:58:07;;;;;;;23.67;8.55;;;;;;;;;;5095304;28;20055;-72
2023/09/21 04:03:01;;;;;;;24.35;8.40;;;;;;;;;;5090374;28;20085;-72
2023/09/21 04:05:35;;;;;;;22.10;8.40;;;;;;;;;;5090068;28;20042;-72
2023/09/21 04:08:02;;;;;;;;;;;;;;;;;;5090174;28;20034;-72
2023/09/21 04:10:28;;;;;;;18.02;8.50;;;;;;;;;;5088614;28;19908;-72
2023/09/21 04:12:57;;;;;;;15.80;9.10;;;;;;;;;;5089848;28;20039;-72
2023/09/21 04:15:29;;;;;;;16.25;9.10;;;;;;;;;;5092391;28;20034;-71
2023/09/21 04:18:01;;;;;;;29.17;9.23;;;;;;;;;;5086328;28;20067;-72
2023/09/21 04:20:34;;;;;;;17.75;7.85;;;;;;;;;;5055256;28;20119;-72
2023/09/21 04:23:00;;;;;;;25.90;9.88;;;;;;;;;;5089816;28;20520;-71
2023/09/21 04:25:26;;;;;;;24.48;8.70;;;;;;;;;;5089422;28;20445;-71
2023/09/21 04:27:53;;;;;;;30.80;9.77;;;;;;;;;;5088957;28;20073;-72
2023/09/21 04:30:23;;;;;;;20.85;8.70;;;;;;;;;;5085902;28;20378;-72
2023/09/21 04:32:49;;;;;;;21.98;8.88;;;;;;;;;;5086201;28;20020;-71
2023/09/21 04:35:18;;;;;;;16.48;7.72;;;;;;;;;;5086054;28;20119;-71
2023/09/21 04:37:45;;;;;;;11.32;8.00;;;;;;;;;;5085892;28;20035;-71
2023/09/21 04:40:13;;;;;;;20.63;9.57;;;;;;;;;;5073437;28;20044;-71
2023/09/21 04:42:43;;;;;;;24.80;9.75;;;;;;;;;;5100030;28;20024;-71
2023/09/21 04:45:11;;;;;;;12.75;8.05;;;;;;;;;;5086420;28;20063;-71
2023/09/21 04:47:37;;;;;;;10.88;7.60;;;;;;;;;;5086428;28;20119;-71
2023/09/21 04:50:05;;;;;;;17.95;9.05;;;;;;;;;;5085623;28;20032;-71
2023/09/21 04:52:33;;;;;;;19.63;9.55;;;;;;;;;;5087534;28;20023;-72
2023/09/21 04:54:59;;;;;;;15.85;8.02;;;;;;;;;;5091573;28;20124;-72
2023/09/21 04:57:27;;;;;;;13.85;8.02;;;;;;;;;;5090166;28;20540;-72
2023/09/21 04:59:54;;;;;;;14.40;8.48;;;;;;;;;;5094229;28;20173;-75
2023/09/21 05:02:20;;;;;;;18.70;8.55;;;;;;;;;;5093998;28;20032;-72
2023/09/21 05:04:46;;;;;;;11.13;7.40;;;;;;;;;;5095930;28;20534;-72
2023/09/21 05:07:14;;;;;;;20.25;9.32;;;;;;;;;;5060500;28;20024;-72
2023/09/21 05:09:40;;;;;;;15.43;8.10;;;;;;;;;;5093703;28;20089;-72
2023/09/21 05:12:06;;;;;;;15.65;7.93;;;;;;;;;;5091834;28;20124;-72
2023/09/21 05:14:33;;;;;;;17.60;7.85;;;;;;;;;;5094128;28;20556;-71
2023/09/21 05:16:59;;;;;;;20.42;8.48;;;;;;;;;;5094966;28;20016;-72
2023/09/21 05:19:26;;;;;;;14.23;8.07;;;;;;;;;;5091755;28;20170;-70
2023/09/21 05:21:56;;;;;;;19.75;8.40;;;;;;;;;;5095295;28;20397;-71
2023/09/21 05:24:25;;;;;;;14.30;7.75;;;;;;;;;;5091751;28;20490;-71
2023/09/21 05:26:55;;;;;;;11.82;6.55;;;;;;;;;;5089897;28;20046;-71
2023/09/21 05:29:21;;;;;;;17.90;7.72;;;;;;;;;;5095018;28;20035;-72
2023/09/21 05:31:50;;;;;;;16.45;7.45;;;;;;;;;;5094649;28;20012;-71
2023/09/21 05:34:17;;;;;;;15.50;7.18;;;;;;;;;;5094610;28;20085;-71
2023/09/21 05:36:47;;;;;;;20.98;7.35;;;;;;;;;;5094740;28;20044;-71
2023/09/21 05:39:16;;;;;;;20.08;8.57;;;;;;;;;;5094051;28;20036;-71
2023/09/21 05:41:51;;;;;;;16.35;7.68;;;;;;;;;;5094034;28;20021;-71
2023/09/21 05:44:21;;;;;;;16.25;7.47;;;;;;;;;;5093977;28;20112;-71
2023/09/21 05:46:49;;;;;;;16.60;7.82;;;;;;;;;;5093091;28;20012;-71
2023/09/21 05:49:22;;;;;;;11.93;6.93;;;;;;;;;;5094201;28;20032;-72
2023/09/21 05:51:52;;;;;;;13.50;7.05;;;;;;;;;;5093661;28;20020;-71
2023/09/21 05:54:23;;;;;;;14.40;7.80;;;;;;;;;;5092851;28;20080;-71
2023/09/21 05:56:53;;;;;;;16.23;7.95;;;;;;;;;;5093922;28;20032;-72
2023/09/21 05:59:21;;;;;;;21.25;8.45;;;;;;;;;;5097679;28;20043;-72
2023/09/21 06:01:48;;;;;;;18.60;9.02;;;;;;;;;;5100282;28;20168;-71
2023/09/21 06:04:16;;;;;;;18.88;8.73;;;;;;;;;;5099246;28;20032;-71
2023/09/21 06:06:46;;;;;;;12.15;7.35;;;;;;;;;;5101866;28;20150;-71
2023/09/21 06:09:18;;;;;;;23.58;9.75;;;;;;;;;;5099190;28;20385;-70
2023/09/21 06:11:45;;;;;;;14.38;7.53;;;;;;;;;;5101247;28;20015;-70
2023/09/21 06:14:11;;;;;;;11.85;7.38;;;;;;;;;;5102683;28;20039;-72
2023/09/21 06:16:41;;;;;;;17.25;8.65;;;;;;;;;;5073972;28;20034;-71
2023/09/21 06:19:08;;;;;;;12.50;6.88;;;;;;;;;;5092645;28;20103;-71
2023/09/21 06:21:35;;;;;;;14.05;8.23;;;;;;;;;;5092651;28;20035;-70
2023/09/21 06:24:03;;;;;;;17.70;7.43;;;;;;;;;;5091063;28;20043;-72
2023/09/21 06:26:29;;;;;;;12.93;7.78;;;;;;;;;;5092572;28;20039;-71
2023/09/21 06:28:55;;;;;;;13.57;8.02;;;;;;;;;;5092586;28;20047;-71
2023/09/21 06:31:21;;;;;;;14.85;7.57;;;;;;;;;;5092088;28;20493;-71
2023/09/21 06:33:48;;;;;;;20.48;7.85;;;;;;;;;;5092128;28;20024;-72
2023/09/21 06:36:20;;;;;;;13.68;6.47;;;;;;;;;;5092536;28;20036;-72
2023/09/21 06:38:47;;;;;;;17.73;7.53;;;;;;;;;;5094015;28;20090;-71
2023/09/21 06:41:13;;;;;;;14.23;7.78;;;;;;;;;;5095134;28;20032;-70
2023/09/21 06:43:43;;;;;;;9.48;6.80;;;;;;;;;;5092477;28;20509;-70
2023/09/21 06:46:10;;;;;;;12.05;7.45;;;;;;;;;;5090752;28;20059;-71
2023/09/21 06:48:36;;;;;;;12.43;7.38;;;;;;;;;;5092374;28;20112;-71
2023/09/21 06:51:04;;;;;;;16.38;7.40;;;;;;;;;;5092365;28;20089;-72
2023/09/21 06:53:31;;;;;;;18.80;8.07;;;;;;;;;;5092021;28;20027;-71
2023/09/21 06:55:58;;;;;;;16.42;6.70;;;;;;;;;;5041736;28;1452380;-71
2023/09/21 06:58:24;;;;;;;13.05;6.63;;;;;;;;;;5092747;28;20464;-71
2023/09/21 07:00:50;;;;;;;12.55;7.15;;;;;;;;;;5092541;28;20402;-75
2023/09/21 07:03:18;;;;;;;16.73;8.20;;;;;;;;;;5092532;28;20035;-73
2023/09/21 07:05:48;;;;;;;13.70;7.40;;;;;;;;;;5092747;28;20073;-74
2023/09/21 07:08:15;;;;;;;13.68;7.95;;;;;;;;;;5093027;28;20059;-72
2023/09/21 07:10:41;;;;;;;28.83;8.88;;;;;;;;;;5092798;28;20040;-73
2023/09/21 07:13:09;;;;;;;17.98;8.23;;;;;;;;;;5092568;28;20460;-73
2023/09/21 07:15:37;;;;;;;13.85;7.30;;;;;;;;;;5086910;28;20031;-73
2023/09/21 07:18:05;;;;;;;10.50;7.70;;;;;;;;;;5092348;28;20222;-73
2023/09/21 07:20:32;;;;;;;18.05;8.45;;;;;;;;;;5096954;28;20028;-73
2023/09/21 07:22:58;;;;;;;14.43;7.88;;;;;;;;;;5099165;28;20089;-72
2023/09/21 07:25:25;;;;;;;9.95;6.93;;;;;;;;;;5100711;28;20061;-71
2023/09/21 07:27:54;;;;;;;14.75;7.68;;;;;;;;;;5101679;28;20110;-74
2023/09/21 07:30:31;;;;;;;10.48;6.63;;;;;;;;;;5096327;28;20047;-73
2023/09/21 07:32:57;;;;;;;9.93;7.07;;;;;;;;;;5090990;28;20505;-73
2023/09/21 07:35:23;;;;;;;20.02;7.00;;;;;;;;;;5091702;28;20111;-74
2023/09/21 07:37:50;;;;;;;14.13;7.15;;;;;;;;;;5092557;28;20118;-74
2023/09/21 07:40:16;;;;;;;31.42;8.77;;;;;;;;;;5091109;28;20439;-72
2023/09/21 07:42:48;;;;;;;16.27;7.38;;;;;;;;;;5091795;28;20040;-72
2023/09/21 07:45:15;;;;;;;11.02;6.13;;;;;;;;;;5091384;28;20070;-73
2023/09/21 07:47:42;;;;;;;12.10;6.68;;;;;;;;;;5084146;28;20035;-73
2023/09/21 07:50:09;;;;;;;9.93;6.43;;;;;;;;;;5091767;28;20043;-74
2023/09/21 07:52:36;;;;;;;14.93;6.32;;;;;;;;;;5081410;28;20028;-72
2023/09/21 07:55:03;;;;;;;11.77;5.68;;;;;;;;;;5094622;28;20036;-75
2023/09/21 07:57:39;;;;;;;10.07;5.80;;;;;;;;;;5091167;28;20110;-74
2023/09/21 08:00:13;;;;;;;9.80;6.18;;;;;;;;;;5086830;28;20035;-75
2023/09/21 08:02:39;;;;;;;10.35;5.82;;;;;;;;;;5090457;28;20028;-72
2023/09/21 08:05:06;;;;;;;9.95;6.25;;;;;;;;;;5091302;28;20047;-72
2023/09/21 08:07:33;;;;;;;16.33;6.00;;;;;;;;;;5091348;28;20455;-73
2023/09/21 08:10:01;;;;;;;10.63;4.82;;;;;;;;;;5091017;28;20465;-75
2023/09/21 08:12:27;;;;;;;12.43;4.57;;;;;;;;;;5073025;28;20389;-73
2023/09/21 08:14:54;;;;;;;9.68;4.95;;;;;;;;;;5091876;28;20028;-74
2023/09/21 08:17:20;;;;;;;7.97;4.13;;;;;;;;;;5090549;28;20077;-73
2023/09/21 08:19:46;;;;;;;7.90;4.35;;;;;;;;;;5091213;28;20032;-72
2023/09/21 08:22:12;;;;;;;10.27;5.22;;;;;;;;;;5090752;28;20040;-74
2023/09/21 08:24:41;;;;;;;12.02;5.22;;;;;;;;;;5090529;28;20102;-73
2023/09/21 08:27:10;;;;;;;10.82;4.55;;;;;;;;;;5091202;28;20048;-73
2023/09/21 08:29:36;;;;;;;8.80;4.60;;;;;;;;;;5091105;28;20027;-73
2023/09/21 08:32:03;;;;;;;6.80;4.80;;;;;;;;;;5090200;28;20028;-73
2023/09/21 08:34:29;;;;;;;12.57;5.25;;;;;;;;;;5089523;28;20020;-74
2023/09/21 08:36:55;;;;;;;6.63;4.70;;;;;;;;;;5089874;28;20047;-75
2023/09/21 08:39:22;;;;;;;9.18;4.95;;;;;;;;;;5090949;28;20032;-75
2023/09/21 08:41:50;;;;;;;8.73;6.10;;;;;;;;;;5089770;28;20035;-75
2023/09/21 08:44:20;;;;;;;9.13;4.53;;;;;;;;;;5090939;28;20028;-74
2023/09/21 08:46:47;;;;;;;8.63;4.45;;;;;;;;;;5090039;28;20044;-75
2023/09/21 08:49:17;;;;;;;8.75;4.28;;;;;;;;;;5091469;28;20027;-75
2023/09/21 08:51:44;;;;;;;7.32;4.03;;;;;;;;;;5092249;28;20100;-74
2023/09/21 08:54:13;;;;;;;12.43;5.00;;;;;;;;;;5093026;28;20113;-75
2023/09/21 08:56:41;;;;;;;8.73;4.22;;;;;;;;;;5100098;28;20103;-74
2023/09/21 08:59:08;;;;;;;10.43;4.55;;;;;;;;;;5094637;28;20027;-72
2023/09/21 09:01:37;;;;;;;10.57;3.92;;;;;;;;;;5094359;28;20527;-75
2023/09/21 09:04:04;;;;;;;7.65;3.97;;;;;;;;;;5089497;28;20028;-73
2023/09/21 09:06:30;;;;;;;6.05;4.78;;;;;;;;;;5091172;28;20047;-73
2023/09/21 09:08:56;;;;;;;13.38;4.30;;;;;;;;;;5073413;28;20053;-73
2023/09/21 09:11:40;;;;;;;6.30;3.95;;;;;;;;;;5091848;28;20032;-74
2023/09/21 09:14:18;;;;;;;7.50;5.03;;;;;;;;;;5091175;28;20052;-75
2023/09/21 09:16:44;;;;;;;8.05;4.22;;;;;;;;;;5083378;28;20032;-75
2023/09/21 09:19:14;;;;;;;9.10;4.30;;;;;;;;;;5091092;28;20091;-74
2023/09/21 09:21:41;;;;;;;10.70;4.03;;;;;;;;;;5082392;28;20089;-75
2023/09/21 09:24:08;;;;;;;8.57;4.30;;;;;;;;;;5087088;28;20032;-75
2023/09/21 09:26:41;;;;;;;10.38;4.32;;;;;;;;;;5090674;28;20112;-75
2023/09/21 09:29:09;;;;;;;8.55;3.90;;;;;;;;;;5090989;28;20093;-75
2023/09/21 09:31:37;;;;;;;6.75;3.60;;;;;;;;;;5090732;28;20120;-74
2023/09/21 09:34:04;;;;;;;4.88;3.40;;;;;;;;;;5091793;28;20028;-74
2023/09/21 09:36:33;;;;;;;6.93;4.03;;;;;;;;;;5094422;28;20027;-74
2023/09/21 09:39:08;;;;;;;11.10;4.38;;;;;;;;;;5093803;28;20036;-74
2023/09/21 09:41:37;;;;;;;8.60;3.60;;;;;;;;;;5089811;28;20162;-73
2023/09/21 09:44:08;;;;;;;7.00;3.95;;;;;;;;;;5090070;28;20047;-73
2023/09/21 09:46:39;;;;;;;8.73;4.68;;;;;;;;;;5092989;28;20028;-72
2023/09/21 09:49:06;;;;;;;9.57;4.30;;;;;;;;;;5093604;28;20070;-74
2023/09/21 09:51:41;;;;;;;9.35;4.38;;;;;;;;;;5094188;28;20397;-73
2023/09/21 09:54:12;;;;;;;15.23;5.07;;;;;;;;;;5091795;28;20027;-74
2023/09/21 09:56:41;;;;;;;10.75;5.65;;;;;;;;;;5094694;28;20485;-75
2023/09/21 09:59:09;;;;;;;9.93;5.10;;;;;;;;;;5094345;28;20023;-74
2023/09/21 10:01:37;;;;;;;9.07;5.18;;;;;;;;;;5094556;28;20549;-75
2023/09/21 10:04:06;;;;;;;10.13;4.90;;;;;;;;;;5094192;28;20034;-75
2023/09/21 10:06:35;;;;;;;12.15;6.22;;;;;;;;;;5094162;28;20040;-74
2023/09/21 10:09:02;;;;;;;16.27;6.80;;;;;;;;;;5092705;28;20040;-74
2023/09/21 10:11:31;;;;;;;10.27;5.47;;;;;;;;;;5093814;28;20024;-75
2023/09/21 10:14:00;;;;;;;7.72;5.50;;;;;;;;;;5092562;28;20093;-74
2023/09/21 10:16:26;;;;;;;9.32;4.93;;;;;;;;;;5094007;28;20028;-74
2023/09/21 10:18:58;;;;;;;10.27;5.03;;;;;;;;;;5093638;28;20040;-75
2023/09/21 10:21:31;;;;;;;10.35;4.85;;;;;;;;;;5092855;28;20043;-74
2023/09/21 10:24:04;;;;;;;12.05;5.60;;;;;;;;;;5093194;28;20036;-73
2023/09/21 10:26:34;;;;;;;10.73;5.57;;;;;;;;;;5093188;28;20093;-74
2023/09/21 10:29:03;;;;;;;11.35;5.78;;;;;;;;;;5094190;28;20046;-74
2023/09/21 10:31:31;;;;;;;8.27;5.82;;;;;;;;;;5093211;28;20016;-75
2023/09/21 10:33:56;;;;;;;10.95;6.32;;;;;;;;;;5107605;28;20040;-72
2023/09/21 10:36:23;;;;;;;11.73;6.13;;;;;;;;;;5114170;28;20076;-76
2023/09/21 10:39:10;;;;;;;13.82;6.15;;;;;;;;;;5103871;28;20032;-73
2023/09/21 10:41:42;;;;;;;9.10;5.50;;;;;;;;;;5092209;28;20032;-74
2023/09/21 10:44:09;;;;;;;15.05;5.78;;;;;;;;;;5092839;28;20442;-73
2023/09/21 10:46:37;;;;;;;10.30;5.38;;;;;;;;;;5093309;28;20028;-73
2023/09/21 10:49:09;;;;;;;10.82;5.53;;;;;;;;;;5092228;28;20036;-73
2023/09/21 10:51:43;;;;;;;11.17;4.93;;;;;;;;;;5087805;28;20389;-72
2023/09/21 10:54:12;;;;;;;14.77;5.78;;;;;;;;;;5092556;28;20032;-73
2023/09/21 10:56:39;;;;;;;26.05;7.10;;;;;;;;;;5090644;28;20427;-73
2023/09/21 10:59:07;;;;;;;11.23;5.10;;;;;;;;;;5092894;28;20397;-75
2023/09/21 11:01:34;;;;;;;7.85;5.15;;;;;;;;;;5082726;28;20496;-73
2023/09/21 11:04:02;;;;;;;10.88;5.07;;;;;;;;;;5092428;28;20036;-73
2023/09/21 11:06:28;;;;;;;6.85;4.60;;;;;;;;;;5091474;28;20058;-74
2023/09/21 11:08:55;;;;;;;8.75;4.72;;;;;;;;;;5092475;28;20036;-74
2023/09/21 11:11:21;;;;;;;14.07;4.60;;;;;;;;;;5092155;28;20039;-73
2023/09/21 11:13:51;;;;;;;7.82;4.60;;;;;;;;;;5090814;28;20027;-74
2023/09/21 11:16:17;;;;;;;5.25;4.00;;;;;;;;;;5092128;28;20055;-74
2023/09/21 11:18:44;;;;;;;7.65;4.20;;;;;;;;;;5092163;28;20032;-74
2023/09/21 11:21:10;;;;;;;8.65;4.35;;;;;;;;;;5090830;28;20035;-74
2023/09/21 11:23:40;;;;;;;6.90;4.72;;;;;;;;;;5092512;28;20028;-75
2023/09/21 11:26:11;;;;;;;7.78;4.88;;;;;;;;;;5091342;28;20293;-73
2023/09/21 11:28:37;;;;;;;8.13;4.50;;;;;;;;;;5084733;28;20615;-74
2023/09/21 11:31:05;;;;;;;10.57;4.78;;;;;;;;;;5085504;28;20028;-75
2023/09/21 11:33:36;;;;;;;11.88;5.10;;;;;;;;;;5092683;28;20032;-75
2023/09/21 11:36:07;;;;;;;11.63;5.40;;;;;;;;;;5073766;28;20032;-75
2023/09/21 11:38:36;;;;;;;13.07;5.57;;;;;;;;;;5091705;28;20020;-75
2023/09/21 11:41:03;;;;;;;12.55;5.30;;;;;;;;;;5075010;28;20087;-78
2023/09/21 11:43:30;;;;;;;13.15;5.35;;;;;;;;;;5091486;28;20102;-74
2023/09/21 11:45:55;;;;;;;15.98;5.70;;;;;;;;;;5091686;28;20518;-77
2023/09/21 11:48:21;;;;;;;11.23;5.28;;;;;;;;;;5092900;28;20023;-72
2023/09/21 11:50:48;;;;;;;11.18;4.85;;;;;;;;;;5084200;28;20481;-74
2023/09/21 11:53:16;;;;;;;13.27;8.32;;;;;;;;;;5092627;28;20069;-73
2023/09/21 11:55:43;;;;;;;12.60;7.70;;;;;;;;;;5092522;28;20048;-72
2023/09/21 11:58:14;;;;;;;14.57;5.32;;;;;;;;;;5086969;28;20027;-74
2023/09/21 12:00:51;;;;;;;8.88;5.28;;;;;;;;;;5092061;28;20461;-74
2023/09/21 12:03:56;;;;;;;7.72;4.50;;;;;;;;;;5072225;28;20516;-73
2023/09/21 12:06:27;;;;;;;13.23;5.32;;;;;;;;;;5087768;28;20044;-72
2023/09/21 12:08:57;;;;;;;12.35;5.13;;;;;;;;;;5091649;28;20070;-73
2023/09/21 12:11:24;;;;;;;16.70;5.93;;;;;;;;;;5092534;28;20123;-72
2023/09/21 12:13:50;;;;;;;9.75;5.00;;;;;;;;;;5092478;28;20067;-72
2023/09/21 12:16:16;;;;;;;10.98;5.53;;;;;;;;;;5092753;28;20482;-72
2023/09/21 12:18:43;;;;;;;13.88;5.63;;;;;;;;;;5091288;28;20027;-72
2023/09/21 12:21:09;;;;;;;14.95;5.95;;;;;;;;;;5092214;28;20039;-72
2023/09/21 12:23:35;;;;;;;22.27;6.18;;;;;;;;;;5092556;28;20016;-71
2023/09/21 12:26:01;;;;;;;13.50;6.10;;;;;;;;;;5091944;28;20053;-72
2023/09/21 12:28:27;;;;;;;8.32;5.45;;;;;;;;;;5085867;28;20031;-73
2023/09/21 12:30:54;;;;;;;16.45;6.50;;;;;;;;;;5090253;28;20032;-71
2023/09/21 12:33:21;;;;;;;7.00;5.13;;;;;;;;;;5093844;28;20031;-72
2023/09/21 12:35:46;;;;;;;11.13;5.95;;;;;;;;;;5091790;28;20043;-73
2023/09/21 12:38:15;;;;;;;7.90;5.32;;;;;;;;;;5091999;28;20378;-73
2023/09/21 12:40:42;;;;;;;10.82;5.80;;;;;;;;;;5090483;28;20040;-74
2023/09/21 12:43:10;;;;;;;10.30;5.40;;;;;;;;;;5091681;28;20020;-73
2023/09/21 12:45:37;;;;;;;16.05;5.47;;;;;;;;;;5090409;28;20028;-72
2023/09/21 12:48:07;;;;;;;12.25;5.30;;;;;;;;;;5087458;28;20353;-74
2023/09/21 12:50:33;;;;;;;10.50;5.35;;;;;;;;;;5086185;28;20036;-72
2023/09/21 12:52:59;;;;;;;15.70;5.57;;;;;;;;;;5090727;28;20040;-72
2023/09/21 12:55:26;;;;;;;15.65;5.90;;;;;;;;;;5084681;28;20036;-73
2023/09/21 12:57:52;;;;;;;11.07;6.75;;;;;;;;;;5091430;28;20039;-70
2023/09/21 13:00:18;;;;;;;18.02;6.65;;;;;;;;;;5091380;28;20032;-72
2023/09/21 13:02:44;;;;;;;10.43;5.32;;;;;;;;;;5082856;28;20393;-72
2023/09/21 13:05:12;;;;;;;12.18;5.68;;;;;;;;;;5091058;28;20101;-72
2023/09/21 13:07:41;;;;;;;10.48;5.45;;;;;;;;;;5091925;28;20028;-72
2023/09/21 13:10:08;;;;;;;7.35;4.97;;;;;;;;;;5088966;28;20035;-71
2023/09/21 13:12:37;;;;;;;11.30;4.57;;;;;;;;;;5086113;28;20051;-71
2023/09/21 13:15:05;;;;;;;11.40;5.22;;;;;;;;;;5089300;28;20399;-74
2023/09/21 13:17:31;;;;;;;10.40;5.35;;;;;;;;;;5093789;28;20431;-74
2023/09/21 13:20:03;;;;;;;12.27;5.30;;;;;;;;;;5098059;28;20028;-73
2023/09/21 13:22:31;;;;;;;8.65;5.20;;;;;;;;;;5106811;28;20032;-72
2023/09/21 13:24:57;;;;;;;15.23;4.95;;;;;;;;;;5111481;28;20042;-72
2023/09/21 13:27:25;;;;;;;10.50;4.47;;;;;;;;;;5096508;28;20036;-72
2023/09/21 13:29:52;;;;;;;9.05;4.47;;;;;;;;;;5104579;28;20032;-73
2023/09/21 13:32:20;;;;;;;8.70;4.28;;;;;;;;;;5086804;28;20040;-73
2023/09/21 13:34:47;;;;;;;7.82;4.00;;;;;;;;;;5106029;28;20092;-72
2023/09/21 13:37:13;;;;;;;20.23;4.55;;;;;;;;;;5100703;28;20031;-73
2023/09/21 13:39:39;;;;;;;9.45;4.57;;;;;;;;;;5093202;28;20157;-73
2023/09/21 13:42:05;;;;;;;9.18;4.63;;;;;;;;;;5090994;28;20039;-72
2023/09/21 13:44:32;;;;;;;13.88;4.88;;;;;;;;;;5091673;28;20024;-73
2023/09/21 13:47:01;;;;;;;9.45;4.70;;;;;;;;;;5091433;28;20055;-73
2023/09/21 13:49:28;;;;;;;11.98;4.13;;;;;;;;;;5092256;28;20030;-71
2023/09/21 13:51:55;;;;;;;7.53;4.15;;;;;;;;;;5092464;28;20035;-73
2023/09/21 13:54:20;;;;;;;8.27;4.20;;;;;;;;;;5092914;28;20028;-71
2023/09/21 13:56:46;;;;;;;9.70;4.00;;;;;;;;;;5093073;28;20044;-72
2023/09/21 13:59:12;;;;;;;8.18;4.07;;;;;;;;;;5092824;28;20085;-73
2023/09/21 14:01:39;;;;;;;7.30;4.28;;;;;;;;;;5092031;28;20039;-72
2023/09/21 14:04:06;;;;;;;6.70;3.67;;;;;;;;;;5092208;28;20066;-71
2023/09/21 14:06:32;;;;;;;9.70;4.30;;;;;;;;;;5092648;28;20031;-73
2023/09/21 14:08:59;;;;;;;7.47;3.90;;;;;;;;;;5092393;28;20106;-72
2023/09/21 14:11:26;;;;;;;8.15;4.10;;;;;;;;;;5092576;28;20114;-71
2023/09/21 14:13:52;;;;;;;7.90;4.05;;;;;;;;;;5092351;28;20095;-71
2023/09/21 14:16:18;;;;;;;12.13;3.78;;;;;;;;;;5092196;28;20385;-70
2023/09/21 14:18:44;;;;;;;9.02;4.47;;;;;;;;;;5092247;28;20115;-72
2023/09/21 14:21:10;;;;;;;11.32;3.42;;;;;;;;;;5088465;28;20362;-72
2023/09/21 14:23:36;;;;;;;8.45;4.15;;;;;;;;;;5091815;28;20035;-72
2023/09/21 14:26:03;;;;;;;5.65;3.88;;;;;;;;;;5084062;28;20039;-72
2023/09/21 14:28:30;;;;;;;8.18;3.53;;;;;;;;;;5089887;28;20024;-72
2023/09/21 14:30:57;;;;;;;12.18;3.53;;;;;;;;;;5092909;28;20126;-72
2023/09/21 14:33:24;;;;;;;8.23;3.53;;;;;;;;;;5093041;28;20077;-71
2023/09/21 14:35:50;;;;;;;7.63;3.75;;;;;;;;;;5092883;28;20532;-72
2023/09/21 14:38:16;;;;;;;10.02;3.50;;;;;;;;;;5093692;28;20027;-72
2023/09/21 14:40:42;;;;;;;5.20;3.20;;;;;;;;;;5092372;28;20039;-70
2023/09/21 14:43:09;;;;;;;14.57;4.88;;;;;;;;;;5093023;28;20028;-71